BHS320 MYGF-MYNN
Flight info
| Callsign | BHS320 |
|---|---|
| Flight time | 0h 30m |
| Altitude | 17000 |
| Route | ZFP BR65V ZQA |
| Aircraft | B737/M-SDE2E3FGHIRWXY/LB1 |
Departure
| Time | 2026-05-05 19:36 |
|---|---|
| Airport | Grand Bahama International Airport (MYGF) |
Arrival
| Time | 2026-05-05 20:06 |
|---|---|
| Airport | Lynden Pindling International Airport (MYNN) |
| Time | Latitude | Longitude | Altitude | Speed | Heading |
|---|---|---|---|---|---|
| 2026-05-05 19:22 | 26.54821 | -78.70228 | 14 ft | 0 kts | 206° |
| 2026-05-05 19:32 | 26.54820 | -78.70229 | 14 ft | 0 kts | 213° |
| 2026-05-05 19:32 | 26.54832 | -78.70234 | 14 ft | 8 kts | 12° |
| 2026-05-05 19:32 | 26.54927 | -78.70288 | 14 ft | 23 kts | 303° |
| 2026-05-05 19:32 | 26.54964 | -78.70460 | 14 ft | 21 kts | 270° |
| 2026-05-05 19:33 | 26.54971 | -78.70616 | 14 ft | 18 kts | 275° |
| 2026-05-05 19:33 | 26.54978 | -78.70747 | 14 ft | 15 kts | 272° |
| 2026-05-05 19:33 | 26.54981 | -78.70857 | 14 ft | 12 kts | 271° |
| 2026-05-05 19:33 | 26.54984 | -78.70927 | 14 ft | 10 kts | 272° |
| 2026-05-05 19:34 | 26.54997 | -78.70995 | 14 ft | 7 kts | 314° |
| 2026-05-05 19:34 | 26.55037 | -78.71003 | 14 ft | 4 kts | 8° |
| 2026-05-05 19:34 | 26.55087 | -78.70992 | 14 ft | 10 kts | 14° |
| 2026-05-05 19:35 | 26.55169 | -78.70957 | 14 ft | 6 kts | 34° |
| 2026-05-05 19:35 | 26.55193 | -78.70914 | 14 ft | 7 kts | 60° |
| 2026-05-05 19:35 | 26.55327 | -78.70644 | 14 ft | 89 kts | 64° |
| 2026-05-05 19:35 | 26.55804 | -78.69699 | 45 ft | 182 kts | 60° |
| 2026-05-05 19:36 | 26.56437 | -78.68393 | 1073 ft | 202 kts | 63° |
| 2026-05-05 19:36 | 26.56886 | -78.66909 | 2280 ft | 211 kts | 86° |
| 2026-05-05 19:36 | 26.56515 | -78.65314 | 3198 ft | 224 kts | 121° |
| 2026-05-05 19:36 | 26.55412 | -78.64002 | 4055 ft | 244 kts | 145° |
| 2026-05-05 19:37 | 26.53968 | -78.63004 | 5248 ft | 251 kts | 150° |
| 2026-05-05 19:37 | 26.52429 | -78.61958 | 6168 ft | 270 kts | 150° |
| 2026-05-05 19:37 | 26.50790 | -78.60816 | 7227 ft | 283 kts | 149° |
| 2026-05-05 19:37 | 26.49119 | -78.59644 | 8391 ft | 290 kts | 149° |
| 2026-05-05 19:38 | 26.47414 | -78.58450 | 9499 ft | 298 kts | 149° |
| 2026-05-05 19:38 | 26.45641 | -78.57214 | 10546 ft | 307 kts | 150° |
| 2026-05-05 19:38 | 26.43774 | -78.55915 | 11327 ft | 325 kts | 150° |
| 2026-05-05 19:38 | 26.41795 | -78.54542 | 12060 ft | 343 kts | 150° |
| 2026-05-05 19:39 | 26.39726 | -78.53107 | 12808 ft | 359 kts | 150° |
| 2026-05-05 19:39 | 26.37583 | -78.51615 | 13992 ft | 360 kts | 150° |
| 2026-05-05 19:39 | 26.35460 | -78.50136 | 15146 ft | 360 kts | 150° |
| 2026-05-05 19:39 | 26.33350 | -78.48666 | 16221 ft | 362 kts | 150° |
| 2026-05-05 19:40 | 26.31188 | -78.47164 | 16880 ft | 368 kts | 150° |
| 2026-05-05 19:40 | 26.29003 | -78.45647 | 17002 ft | 367 kts | 150° |
| 2026-05-05 19:40 | 26.26850 | -78.44151 | 17012 ft | 367 kts | 150° |
| 2026-05-05 19:40 | 26.24587 | -78.42585 | 17012 ft | 397 kts | 150° |
| 2026-05-05 19:41 | 26.22147 | -78.40901 | 17008 ft | 423 kts | 149° |
| 2026-05-05 19:41 | 26.19549 | -78.39108 | 17011 ft | 445 kts | 149° |
| 2026-05-05 19:41 | 26.16889 | -78.37270 | 17005 ft | 454 kts | 149° |
| 2026-05-05 19:41 | 26.14212 | -78.35416 | 17008 ft | 455 kts | 149° |
| 2026-05-05 19:42 | 26.11730 | -78.33681 | 17008 ft | 454 kts | 148° |
| 2026-05-05 19:42 | 26.09355 | -78.31881 | 17001 ft | 454 kts | 146° |
| 2026-05-05 19:42 | 26.06727 | -78.29735 | 17006 ft | 455 kts | 144° |
| 2026-05-05 19:42 | 26.04228 | -78.27621 | 17009 ft | 455 kts | 144° |
| 2026-05-05 19:43 | 26.01692 | -78.25459 | 17004 ft | 455 kts | 144° |
| 2026-05-05 19:43 | 25.99177 | -78.23328 | 17002 ft | 456 kts | 144° |
| 2026-05-05 19:43 | 25.96601 | -78.21165 | 17005 ft | 456 kts | 144° |
| 2026-05-05 19:43 | 25.94068 | -78.19058 | 17007 ft | 456 kts | 145° |
| 2026-05-05 19:44 | 25.91516 | -78.16949 | 17005 ft | 456 kts | 145° |
| 2026-05-05 19:44 | 25.89018 | -78.14894 | 16995 ft | 436 kts | 145° |
| 2026-05-05 19:44 | 25.86633 | -78.12933 | 16999 ft | 411 kts | 145° |
| 2026-05-05 19:44 | 25.84382 | -78.11084 | 16995 ft | 389 kts | 145° |
| 2026-05-05 19:45 | 25.82254 | -78.09338 | 16997 ft | 368 kts | 145° |
| 2026-05-05 19:45 | 25.80235 | -78.07684 | 17008 ft | 356 kts | 146° |
| 2026-05-05 19:45 | 25.78246 | -78.06059 | 16879 ft | 347 kts | 145° |
| 2026-05-05 19:45 | 25.76269 | -78.04445 | 16571 ft | 353 kts | 146° |
| 2026-05-05 19:46 | 25.74294 | -78.02836 | 16131 ft | 353 kts | 146° |
| 2026-05-05 19:46 | 25.72319 | -78.01224 | 15694 ft | 350 kts | 146° |
| 2026-05-05 19:46 | 25.70380 | -77.99640 | 15255 ft | 348 kts | 146° |
| 2026-05-05 19:46 | 25.68424 | -77.98042 | 14795 ft | 345 kts | 146° |
| 2026-05-05 19:47 | 25.66510 | -77.96481 | 14357 ft | 342 kts | 146° |
| 2026-05-05 19:47 | 25.64592 | -77.94916 | 13925 ft | 339 kts | 146° |
| 2026-05-05 19:47 | 25.62686 | -77.93361 | 13492 ft | 336 kts | 147° |
| 2026-05-05 19:47 | 25.60822 | -77.91840 | 13069 ft | 333 kts | 147° |
| 2026-05-05 19:48 | 25.58960 | -77.90324 | 12640 ft | 330 kts | 146° |
| 2026-05-05 19:48 | 25.57132 | -77.88835 | 12225 ft | 326 kts | 147° |
| 2026-05-05 19:48 | 25.55304 | -77.87347 | 11803 ft | 323 kts | 147° |
| 2026-05-05 19:48 | 25.53491 | -77.85873 | 11393 ft | 320 kts | 147° |
| 2026-05-05 19:49 | 25.51706 | -77.84420 | 10981 ft | 317 kts | 147° |
| 2026-05-05 19:49 | 25.50527 | -77.83460 | 10706 ft | 315 kts | 147° |
| 2026-05-05 19:49 | 25.48169 | -77.81544 | 10169 ft | 310 kts | 147° |
| 2026-05-05 19:49 | 25.46457 | -77.80151 | 9947 ft | 300 kts | 147° |
| 2026-05-05 19:50 | 25.44804 | -77.78804 | 9734 ft | 291 kts | 148° |
| 2026-05-05 19:50 | 25.43162 | -77.77473 | 9308 ft | 292 kts | 147° |
| 2026-05-05 19:50 | 25.41535 | -77.76156 | 8930 ft | 290 kts | 147° |
| 2026-05-05 19:50 | 25.39920 | -77.74847 | 8584 ft | 287 kts | 147° |
| 2026-05-05 19:51 | 25.38325 | -77.73553 | 8233 ft | 284 kts | 147° |
| 2026-05-05 19:51 | 25.36727 | -77.72256 | 7885 ft | 281 kts | 147° |
| 2026-05-05 19:51 | 25.35161 | -77.70986 | 7533 ft | 279 kts | 147° |
| 2026-05-05 19:51 | 25.33588 | -77.69711 | 7187 ft | 276 kts | 147° |
| 2026-05-05 19:52 | 25.32052 | -77.68468 | 6855 ft | 273 kts | 146° |
| 2026-05-05 19:52 | 25.30519 | -77.67227 | 6516 ft | 271 kts | 147° |
| 2026-05-05 19:52 | 25.29003 | -77.66000 | 6179 ft | 269 kts | 146° |
| 2026-05-05 19:52 | 25.27496 | -77.64782 | 5846 ft | 267 kts | 146° |
| 2026-05-05 19:53 | 25.26014 | -77.63583 | 5512 ft | 265 kts | 146° |
| 2026-05-05 19:53 | 25.24516 | -77.62372 | 5180 ft | 262 kts | 146° |
| 2026-05-05 19:53 | 25.23064 | -77.61198 | 4853 ft | 261 kts | 146° |
| 2026-05-05 19:53 | 25.21592 | -77.60009 | 4527 ft | 259 kts | 146° |
| 2026-05-05 19:54 | 25.20153 | -77.58846 | 4207 ft | 257 kts | 146° |
| 2026-05-05 19:54 | 25.18705 | -77.57677 | 3885 ft | 255 kts | 146° |
| 2026-05-05 19:54 | 25.17283 | -77.56530 | 3559 ft | 253 kts | 145° |
| 2026-05-05 19:54 | 25.15857 | -77.55379 | 3237 ft | 251 kts | 146° |
| 2026-05-05 19:55 | 25.14465 | -77.54255 | 2929 ft | 250 kts | 145° |
| 2026-05-05 19:55 | 25.13052 | -77.53116 | 2609 ft | 248 kts | 145° |
| 2026-05-05 19:55 | 25.11656 | -77.51990 | 2314 ft | 244 kts | 144° |
| 2026-05-05 19:55 | 25.10213 | -77.51067 | 1822 ft | 240 kts | 160° |
| 2026-05-05 19:56 | 25.08672 | -77.50663 | 1683 ft | 212 kts | 169° |
| 2026-05-05 19:56 | 25.07383 | -77.50007 | 1338 ft | 208 kts | 135° |
| 2026-05-05 19:56 | 25.06457 | -77.48837 | 915 ft | 195 kts | 139° |
| 2026-05-05 19:56 | 25.05449 | -77.47864 | 155 ft | 185 kts | 136° |
| 2026-05-05 19:57 | 25.04614 | -77.46927 | 44 ft | 156 kts | 135° |
| 2026-05-05 19:57 | 25.04138 | -77.46379 | 170 ft | 139 kts | 133° |
| 2026-05-05 19:57 | 25.03299 | -77.45342 | 1014 ft | 165 kts | 133° |
| 2026-05-05 19:57 | 25.02521 | -77.44154 | 1760 ft | 217 kts | 116° |
| 2026-05-05 19:58 | 25.02192 | -77.42444 | 2094 ft | 229 kts | 85° |
| 2026-05-05 19:58 | 25.02808 | -77.40935 | 2028 ft | 219 kts | 41° |
| 2026-05-05 19:58 | 25.02818 | -77.40925 | 2027 ft | 219 kts | 41° |
| 2026-05-05 20:00 | 25.03208 | -77.40602 | 2016 ft | 218 kts | 27° |
| 2026-05-05 20:00 | 25.04679 | -77.40373 | 2008 ft | 217 kts | 342° |
| 2026-05-05 20:00 | 25.05991 | -77.41141 | 2015 ft | 212 kts | 320° |
| 2026-05-05 20:00 | 25.07156 | -77.42147 | 2000 ft | 212 kts | 319° |
| 2026-05-05 20:01 | 25.08310 | -77.43147 | 2000 ft | 213 kts | 319° |
| 2026-05-05 20:01 | 25.09477 | -77.44154 | 1888 ft | 208 kts | 319° |
| 2026-05-05 20:01 | 25.10597 | -77.45117 | 1766 ft | 198 kts | 319° |
| 2026-05-05 20:01 | 25.11670 | -77.46040 | 1650 ft | 188 kts | 319° |
| 2026-05-05 20:02 | 25.12661 | -77.46883 | 1606 ft | 175 kts | 320° |
| 2026-05-05 20:02 | 25.13483 | -77.47568 | 1605 ft | 171 kts | 320° |
| 2026-05-05 20:02 | 25.13985 | -77.48035 | 1591 ft | 171 kts | 312° |
| 2026-05-05 20:02 | 25.14458 | -77.49179 | 1600 ft | 164 kts | 264° |
| 2026-05-05 20:03 | 25.14079 | -77.50295 | 1607 ft | 162 kts | 234° |
| 2026-05-05 20:03 | 25.13409 | -77.51101 | 1602 ft | 161 kts | 220° |
| 2026-05-05 20:03 | 25.12548 | -77.51910 | 1601 ft | 162 kts | 223° |
| 2026-05-05 20:03 | 25.11710 | -77.52752 | 1566 ft | 160 kts | 216° |
| 2026-05-05 20:04 | 25.10663 | -77.53093 | 1457 ft | 163 kts | 174° |
| 2026-05-05 20:04 | 25.09673 | -77.52573 | 1370 ft | 155 kts | 141° |
| 2026-05-05 20:04 | 25.08948 | -77.51752 | 1247 ft | 145 kts | 136° |
| 2026-05-05 20:04 | 25.08240 | -77.50962 | 1135 ft | 142 kts | 136° |
| 2026-05-05 20:05 | 25.07568 | -77.50185 | 1055 ft | 138 kts | 135° |
| 2026-05-05 20:05 | 25.06882 | -77.49417 | 793 ft | 142 kts | 139° |
| 2026-05-05 20:05 | 25.06175 | -77.48666 | 430 ft | 144 kts | 137° |
| 2026-05-05 20:05 | 25.05482 | -77.47889 | 157 ft | 140 kts | 138° |
| 2026-05-05 20:06 | 25.04815 | -77.47156 | 40 ft | 126 kts | 137° |
| 2026-05-05 20:06 | 25.04270 | -77.46549 | 26 ft | 78 kts | 132° |
| 2026-05-05 20:06 | 25.04074 | -77.46133 | 25 ft | 33 kts | 111° |
| 2026-05-05 20:06 | 25.04121 | -77.46143 | 25 ft | 12 kts | 316° |
| 2026-05-05 20:07 | 25.04208 | -77.46231 | 25 ft | 21 kts | 316° |
| 2026-05-05 20:07 | 25.04326 | -77.46359 | 25 ft | 22 kts | 314° |
| 2026-05-05 20:07 | 25.04428 | -77.46478 | 26 ft | 19 kts | 313° |
| 2026-05-05 20:07 | 25.04521 | -77.46576 | 26 ft | 16 kts | 317° |
| 2026-05-05 20:08 | 25.04596 | -77.46659 | 26 ft | 13 kts | 314° |
| 2026-05-05 20:08 | 25.04659 | -77.46729 | 26 ft | 11 kts | 315° |
| 2026-05-05 20:08 | 25.04713 | -77.46734 | 26 ft | 7 kts | 43° |
| 2026-05-05 20:08 | 25.04739 | -77.46694 | 26 ft | 5 kts | 85° |
| 2026-05-05 20:09 | 25.04708 | -77.46649 | 26 ft | 9 kts | 135° |
| 2026-05-05 20:09 | 25.04676 | -77.46613 | 26 ft | 7 kts | 136° |
| 2026-05-05 20:09 | 25.04675 | -77.46568 | 26 ft | 7 kts | 56° |
| 2026-05-05 20:09 | 25.04693 | -77.46551 | 26 ft | 3 kts | 8° |
| 2026-05-05 20:10 | 25.04715 | -77.46550 | 26 ft | 1 kts | 356° |
| 2026-05-05 20:10 | 25.04717 | -77.46550 | 26 ft | 0 kts | 357° |